createdAt,value
2018-04-02T00:00:43.448Z,5.70
2018-04-02T00:03:11.005Z,5.70
2018-04-02T00:05:38.543Z,5.70
2018-04-02T00:08:06.100Z,5.60
2018-04-02T00:10:33.692Z,5.60
2018-04-02T00:13:01.259Z,5.70
2018-04-02T00:15:28.823Z,5.70
2018-04-02T00:17:56.458Z,5.70
2018-04-02T00:20:24.079Z,5.80
2018-04-02T00:22:52.387Z,5.80
2018-04-02T00:25:19.964Z,5.80
2018-04-02T00:27:47.569Z,5.80
2018-04-02T00:30:15.888Z,5.90
2018-04-02T00:32:43.471Z,5.80
2018-04-02T00:35:11.768Z,5.90
2018-04-02T00:37:39.303Z,5.90
2018-04-02T00:40:07.085Z,5.90
2018-04-02T00:42:34.633Z,5.90
2018-04-02T00:45:02.202Z,5.90
2018-04-02T00:47:29.783Z,5.90
2018-04-02T00:49:57.362Z,6.00
2018-04-02T00:52:25.697Z,5.90
2018-04-02T00:54:53.282Z,5.90
2018-04-02T00:57:20.827Z,5.90
2018-04-02T00:59:48.370Z,5.90
2018-04-02T01:02:15.936Z,5.90
2018-04-02T01:04:43.497Z,5.90
2018-04-02T01:07:11.061Z,5.90
2018-04-02T01:09:38.636Z,5.90
2018-04-02T01:12:06.191Z,5.90
2018-04-02T01:14:33.761Z,5.80
2018-04-02T01:17:01.313Z,5.80
2018-04-02T01:19:28.867Z,5.80
2018-04-02T01:21:56.426Z,5.80
2018-04-02T01:24:24.005Z,5.80
2018-04-02T01:26:51.575Z,5.80
2018-04-02T01:29:19.902Z,5.80
2018-04-02T01:31:47.486Z,5.80
2018-04-02T01:34:15.037Z,5.80
2018-04-02T01:36:42.591Z,5.90
2018-04-02T01:39:10.175Z,5.90
2018-04-02T01:41:37.869Z,5.90
2018-04-02T01:44:05.411Z,5.80
2018-04-02T01:46:33.774Z,5.90
2018-04-02T01:49:01.322Z,5.90
2018-04-02T01:51:28.868Z,5.90
2018-04-02T01:53:56.434Z,5.90
2018-04-02T01:56:23.993Z,5.90
2018-04-02T01:58:51.547Z,5.90
2018-04-02T02:01:19.897Z,5.90
2018-04-02T02:03:47.429Z,5.90
2018-04-02T02:06:15.753Z,5.90
2018-04-02T02:08:43.314Z,5.80
2018-04-02T02:11:10.862Z,5.90
2018-04-02T02:13:38.423Z,5.90
2018-04-02T02:16:06.899Z,5.90
2018-04-02T02:18:34.466Z,5.90
2018-04-02T02:21:02.026Z,5.90
2018-04-02T02:23:29.622Z,5.80
2018-04-02T02:25:57.325Z,5.90
2018-04-02T02:28:24.858Z,5.90
2018-04-02T02:30:53.181Z,5.90
2018-04-02T02:33:20.738Z,5.90
2018-04-02T02:35:48.298Z,5.90
2018-04-02T02:38:15.889Z,5.90
2018-04-02T02:40:43.434Z,5.90
2018-04-02T02:43:11.061Z,5.90
2018-04-02T02:45:38.737Z,5.90
2018-04-02T02:48:06.331Z,5.80
2018-04-02T02:50:34.060Z,5.80
2018-04-02T02:53:01.650Z,5.90
2018-04-02T02:55:29.200Z,5.90
2018-04-02T02:57:56.758Z,5.90
2018-04-02T03:00:24.327Z,5.80
2018-04-02T03:02:52.667Z,5.70
2018-04-02T03:05:20.214Z,5.70
2018-04-02T03:07:47.831Z,5.70
2018-04-02T03:10:15.398Z,5.70
2018-04-02T03:12:42.942Z,5.70
2018-04-02T03:15:10.525Z,5.60
2018-04-02T03:17:38.835Z,5.60
2018-04-02T03:20:06.400Z,5.60
2018-04-02T03:22:34.065Z,5.60
2018-04-02T03:25:01.629Z,5.60
2018-04-02T03:27:29.188Z,5.60
2018-04-02T03:29:56.773Z,5.50
2018-04-02T03:32:24.309Z,5.40
2018-04-02T03:34:51.856Z,5.50
2018-04-02T03:37:19.426Z,5.50
2018-04-02T03:39:46.989Z,5.50
2018-04-02T03:42:14.557Z,5.40
2018-04-02T03:44:42.890Z,5.40
2018-04-02T03:47:11.204Z,5.30
2018-04-02T03:49:38.880Z,5.30
2018-04-02T03:52:06.448Z,5.30
2018-04-02T03:54:34.797Z,5.20
2018-04-02T03:57:02.351Z,5.20
2018-04-02T03:59:29.928Z,5.20
2018-04-02T04:01:57.455Z,5.20
2018-04-02T04:04:25.017Z,5.10
2018-04-02T04:06:52.579Z,5.10
2018-04-02T04:09:20.129Z,5.00
2018-04-02T04:11:47.672Z,5.00
2018-04-02T04:14:16.072Z,4.90
2018-04-02T04:16:43.688Z,4.90
2018-04-02T04:19:11.239Z,4.90
2018-04-02T04:21:38.808Z,4.90
2018-04-02T04:24:06.411Z,4.80
2018-04-02T04:26:34.834Z,4.70
2018-04-02T04:29:02.401Z,4.70
2018-04-02T04:31:29.943Z,4.70
2018-04-02T04:33:57.493Z,4.70
2018-04-02T04:36:25.042Z,4.70
2018-04-02T04:38:52.569Z,4.70
2018-04-02T04:41:20.873Z,4.80
2018-04-02T04:43:49.304Z,4.80
2018-04-02T04:46:16.847Z,4.80
2018-04-02T04:48:44.498Z,4.80
2018-04-02T04:51:12.078Z,4.70
2018-04-02T04:53:39.650Z,4.70
2018-04-02T04:56:07.419Z,4.60
2018-04-02T04:58:34.979Z,4.60
2018-04-02T05:01:02.539Z,4.60
2018-04-02T05:03:30.097Z,4.70
2018-04-02T05:05:57.667Z,4.70
2018-04-02T05:08:25.225Z,4.80
2018-04-02T05:10:52.782Z,4.80
2018-04-02T05:13:20.349Z,4.90
2018-04-02T05:15:47.889Z,4.90
2018-04-02T05:18:16.306Z,5.00
2018-04-02T05:20:43.857Z,4.90
2018-04-02T05:23:11.398Z,4.90
2018-04-02T05:25:38.958Z,4.90
2018-04-02T05:28:06.567Z,4.90
2018-04-02T05:30:34.139Z,4.90
2018-04-02T05:33:01.681Z,4.80
2018-04-02T05:35:29.262Z,4.80
2018-04-02T05:37:56.803Z,4.70
2018-04-02T05:40:25.116Z,4.70
2018-04-02T05:42:52.702Z,4.70
2018-04-02T05:45:20.314Z,4.60
2018-04-02T05:47:47.836Z,4.50
2018-04-02T05:50:15.413Z,4.60
2018-04-02T05:52:42.952Z,4.70
2018-04-02T05:55:10.505Z,4.70
2018-04-02T05:57:38.193Z,4.80
2018-04-02T06:00:05.782Z,4.80
2018-04-02T06:02:33.309Z,4.80
2018-04-02T06:05:00.915Z,4.80
2018-04-02T06:07:28.464Z,4.90
2018-04-02T06:09:55.993Z,4.90
2018-04-02T06:12:23.608Z,4.90
2018-04-02T06:14:51.184Z,5.00
2018-04-02T06:17:18.759Z,5.00
2018-04-02T06:19:46.439Z,5.10
2018-04-02T06:22:14.759Z,5.20
2018-04-02T06:24:42.301Z,5.20
2018-04-02T06:27:10.649Z,5.30
2018-04-02T06:29:38.351Z,5.30
2018-04-02T06:32:05.899Z,5.30
2018-04-02T06:34:33.483Z,5.40
2018-04-02T06:37:01.045Z,5.50
2018-04-02T06:39:28.600Z,5.50
2018-04-02T06:41:56.167Z,5.60
2018-04-02T06:44:23.698Z,5.60
2018-04-02T06:46:51.288Z,5.60
2018-04-02T06:49:18.883Z,5.60
2018-04-02T06:51:46.488Z,5.60
2018-04-02T06:54:14.013Z,5.70
2018-04-02T06:56:42.355Z,5.80
2018-04-02T06:59:09.917Z,5.80
2018-04-02T07:01:37.673Z,5.90
2018-04-02T07:04:06.021Z,6.00
2018-04-02T07:06:33.609Z,6.00
2018-04-02T07:09:01.161Z,6.00
2018-04-02T07:11:28.738Z,6.10
2018-04-02T07:13:56.283Z,6.10
2018-04-02T07:16:23.819Z,6.20
2018-04-02T07:18:51.392Z,6.40
2018-04-02T07:21:18.955Z,6.40
2018-04-02T07:23:46.531Z,6.50
2018-04-02T07:26:14.103Z,6.50
2018-04-02T07:28:41.684Z,6.50
2018-04-02T07:31:09.995Z,6.50
2018-04-02T07:33:37.638Z,6.50
2018-04-02T07:36:05.176Z,6.60
2018-04-02T07:38:32.757Z,6.60
2018-04-02T07:41:00.353Z,6.60
2018-04-02T07:43:27.904Z,6.70
2018-04-02T07:45:55.470Z,6.70
2018-04-02T07:48:23.114Z,6.80
2018-04-02T07:50:50.649Z,6.80
2018-04-02T07:53:19.098Z,7.00
2018-04-02T07:55:47.442Z,7.00
2018-04-02T07:58:15.051Z,7.00
2018-04-02T08:00:43.363Z,7.20
2018-04-02T08:03:10.935Z,7.20
2018-04-02T08:05:38.579Z,7.30
2018-04-02T08:08:06.132Z,7.40
2018-04-02T08:10:34.471Z,7.60
2018-04-02T08:13:02.019Z,7.60
2018-04-02T08:15:29.549Z,7.80
2018-04-02T08:17:57.882Z,8.10
2018-04-02T08:20:25.413Z,8.10
2018-04-02T08:22:53.248Z,8.30
2018-04-02T08:25:20.903Z,8.40
2018-04-02T08:27:49.243Z,8.80
2018-04-02T08:30:16.936Z,8.80
2018-04-02T08:32:44.510Z,8.90
2018-04-02T08:35:12.052Z,8.90
2018-04-02T08:37:39.593Z,9.00
2018-04-02T08:40:07.176Z,9.00
2018-04-02T08:42:34.701Z,9.00
2018-04-02T08:45:02.222Z,9.00
2018-04-02T08:47:30.566Z,9.00
2018-04-02T08:49:58.115Z,9.00
2018-04-02T08:52:25.642Z,9.00
2018-04-02T08:54:53.204Z,9.10
2018-04-02T08:57:20.740Z,9.00
2018-04-02T08:59:49.075Z,9.00
2018-04-02T09:02:16.655Z,9.00
2018-04-02T09:04:44.196Z,9.10
2018-04-02T09:07:11.781Z,9.10
2018-04-02T09:09:40.117Z,9.20
2018-04-02T09:12:07.665Z,9.20
2018-04-02T09:14:35.192Z,9.20
2018-04-02T09:17:03.537Z,9.30
2018-04-02T09:19:31.075Z,9.30
2018-04-02T09:21:58.641Z,9.40
2018-04-02T09:24:26.225Z,9.50
2018-04-02T09:26:53.767Z,9.60
2018-04-02T09:29:21.312Z,9.70
2018-04-02T09:31:48.857Z,9.80
2018-04-02T09:34:16.453Z,10.10
2018-04-02T09:36:43.982Z,10.40
2018-04-02T09:39:11.565Z,10.50
2018-04-02T09:41:39.132Z,10.80
2018-04-02T09:44:06.684Z,11.00
2018-04-02T09:46:35.028Z,11.20
2018-04-02T09:49:02.851Z,11.10
2018-04-02T09:51:31.303Z,11.10
2018-04-02T09:53:58.913Z,11.10
2018-04-02T09:56:26.466Z,11.20
2018-04-02T09:58:54.774Z,11.30
2018-04-02T10:01:22.344Z,11.30
2018-04-02T10:03:57.866Z,11.30
2018-04-02T10:06:25.446Z,11.30
2018-04-02T10:08:52.982Z,11.20
2018-04-02T10:11:20.524Z,11.20
2018-04-02T10:13:48.863Z,11.10
2018-04-02T10:16:16.408Z,11.10
2018-04-02T10:18:43.966Z,11.10
2018-04-02T10:21:11.544Z,11.20
2018-04-02T10:23:39.073Z,11.30
2018-04-02T10:26:06.625Z,11.20
2018-04-02T10:28:34.202Z,11.10
2018-04-02T10:31:01.775Z,11.00
2018-04-02T10:33:29.289Z,11.00
2018-04-02T10:35:56.851Z,11.00
2018-04-02T10:38:24.399Z,10.90
2018-04-02T10:40:52.703Z,10.80
2018-04-02T10:43:20.324Z,10.80
2018-04-02T10:45:47.855Z,10.80
2018-04-02T10:48:15.409Z,10.80
2018-04-02T10:50:42.978Z,10.80
2018-04-02T10:53:10.524Z,10.90
2018-04-02T10:55:38.068Z,11.10
2018-04-02T10:58:05.631Z,11.30
2018-04-02T11:00:33.173Z,11.30
2018-04-02T11:03:00.711Z,11.30
2018-04-02T11:05:28.321Z,11.40
2018-04-02T11:07:56.185Z,11.50
2018-04-02T11:10:24.258Z,11.40
2018-04-02T11:12:51.863Z,11.30
2018-04-02T11:15:20.159Z,11.30
2018-04-02T11:17:47.701Z,11.30
2018-04-02T11:20:16.025Z,11.30
2018-04-02T11:22:43.593Z,11.30
2018-04-02T11:25:11.218Z,11.40
2018-04-02T11:27:38.779Z,11.40
2018-04-02T11:30:06.313Z,11.30
2018-04-02T11:32:34.612Z,11.30
2018-04-02T11:35:02.173Z,11.30
2018-04-02T11:37:29.719Z,11.30
2018-04-02T11:39:57.266Z,11.30
2018-04-02T11:42:25.589Z,11.30
2018-04-02T11:44:53.166Z,11.30
2018-04-02T11:47:20.765Z,11.20
2018-04-02T11:49:49.117Z,11.10
2018-04-02T11:52:16.667Z,11.10
2018-04-02T11:54:44.211Z,11.20
2018-04-02T11:57:11.848Z,11.20
2018-04-02T11:59:39.347Z,11.10
2018-04-02T12:02:06.890Z,11.20
2018-04-02T12:04:34.453Z,11.20
2018-04-02T12:07:02.012Z,11.30
2018-04-02T12:09:29.548Z,11.30
2018-04-02T12:11:57.227Z,11.30
2018-04-02T12:14:24.770Z,11.40
2018-04-02T12:16:52.311Z,11.50
2018-04-02T12:19:19.885Z,11.50
2018-04-02T12:21:47.429Z,11.60
2018-04-02T12:24:15.741Z,11.70
2018-04-02T12:26:43.345Z,11.70
2018-04-02T12:29:10.877Z,11.80
2018-04-02T12:31:38.423Z,11.70
2018-04-02T12:34:05.977Z,11.70
2018-04-02T12:36:33.534Z,11.70
2018-04-02T12:39:01.081Z,11.70
2018-04-02T12:41:28.652Z,11.70
2018-04-02T12:43:56.195Z,11.80
2018-04-02T12:46:23.750Z,11.80
2018-04-02T12:48:51.328Z,11.80
2018-04-02T12:51:18.862Z,11.80
2018-04-02T12:53:47.167Z,11.90
2018-04-02T12:56:14.749Z,11.90
2018-04-02T12:58:42.299Z,12.00
2018-04-02T13:01:10.610Z,12.00
2018-04-02T13:03:38.939Z,12.00
2018-04-02T13:06:06.476Z,12.00
2018-04-02T13:08:34.002Z,12.00
2018-04-02T13:11:01.589Z,11.90
2018-04-02T13:13:29.153Z,11.90
2018-04-02T13:15:56.709Z,11.90
2018-04-02T13:18:24.274Z,11.80
2018-04-02T13:20:51.825Z,11.80
2018-04-02T13:23:19.387Z,11.90
2018-04-02T13:25:46.963Z,11.90
2018-04-02T13:28:14.579Z,11.90
2018-04-02T13:30:42.113Z,11.90
2018-04-02T13:33:09.707Z,11.90
2018-04-02T13:35:37.242Z,11.90
2018-04-02T13:38:04.785Z,11.90
2018-04-02T13:40:32.310Z,11.90
2018-04-02T13:42:59.886Z,11.90
2018-04-02T13:45:27.431Z,11.90
2018-04-02T13:47:55.002Z,12.00
2018-04-02T13:50:22.563Z,12.00
2018-04-02T13:52:50.135Z,12.10
2018-04-02T13:55:17.711Z,12.30
2018-04-02T13:57:45.294Z,12.40
2018-04-02T14:00:12.805Z,12.50
2018-04-02T14:02:40.559Z,12.60
2018-04-02T14:05:08.115Z,12.60
2018-04-02T14:07:35.717Z,12.80
2018-04-02T14:10:03.256Z,12.90
2018-04-02T14:12:30.773Z,12.90
2018-04-02T14:14:59.104Z,12.80
2018-04-02T14:17:26.686Z,12.80
2018-04-02T14:19:54.213Z,12.70
2018-04-02T14:22:21.761Z,12.70
2018-04-02T14:24:49.295Z,12.70
2018-04-02T14:27:16.870Z,12.60
2018-04-02T14:29:44.413Z,12.70
2018-04-02T14:32:11.945Z,12.70
2018-04-02T14:34:39.499Z,12.80
2018-04-02T14:37:07.032Z,12.80
2018-04-02T14:39:34.591Z,12.80
2018-04-02T14:42:02.137Z,12.80
2018-04-02T14:44:29.660Z,12.80
2018-04-02T14:46:57.979Z,12.80
2018-04-02T14:49:25.515Z,12.80
2018-04-02T14:51:53.033Z,12.80
2018-04-02T14:54:20.591Z,12.80
2018-04-02T14:56:48.133Z,12.70
2018-04-02T14:59:15.681Z,12.70
2018-04-02T15:01:43.229Z,12.70
2018-04-02T15:04:10.764Z,12.70
2018-04-02T15:06:38.324Z,12.70
2018-04-02T15:09:05.868Z,12.70
2018-04-02T15:11:34.172Z,12.60
2018-04-02T15:14:01.728Z,12.60
2018-04-02T15:16:29.260Z,12.60
2018-04-02T15:18:57.566Z,12.60
2018-04-02T15:21:25.098Z,12.50
2018-04-02T15:23:53.402Z,12.50
2018-04-02T15:26:20.959Z,12.50
2018-04-02T15:28:48.495Z,12.50
2018-04-02T15:31:16.802Z,12.50
2018-04-02T15:33:44.354Z,12.50
2018-04-02T15:36:11.916Z,12.50
2018-04-02T15:38:39.468Z,12.50
2018-04-02T15:41:07.024Z,12.50
2018-04-02T15:43:34.576Z,12.60
2018-04-02T15:46:02.130Z,12.60
2018-04-02T15:48:29.667Z,12.60
2018-04-02T15:50:57.288Z,12.60
2018-04-02T15:53:24.951Z,12.60
2018-04-02T15:55:52.496Z,12.60
2018-04-02T15:58:20.047Z,12.60
2018-04-02T16:00:47.591Z,12.50
2018-04-02T16:03:15.147Z,12.50
2018-04-02T16:05:42.675Z,12.50
2018-04-02T16:08:10.227Z,12.50
2018-04-02T16:10:37.761Z,12.50
2018-04-02T16:13:05.334Z,12.50
2018-04-02T16:15:32.861Z,12.50
2018-04-02T16:18:00.396Z,12.50
2018-04-02T16:20:28.733Z,12.40
2018-04-02T16:22:56.346Z,12.40
2018-04-02T16:25:23.889Z,12.40
2018-04-02T16:27:52.213Z,12.40
2018-04-02T16:30:19.791Z,12.40
2018-04-02T16:32:47.362Z,12.40
2018-04-02T16:35:14.917Z,12.40
2018-04-02T16:37:42.457Z,12.30
2018-04-02T16:40:09.989Z,12.40
2018-04-02T16:42:37.559Z,12.30
2018-04-02T16:45:05.118Z,12.30
2018-04-02T16:47:32.653Z,12.30
2018-04-02T16:50:00.195Z,12.30
2018-04-02T16:52:28.530Z,12.30
2018-04-02T16:54:56.063Z,12.30
2018-04-02T16:57:23.621Z,12.20
2018-04-02T16:59:51.193Z,12.30
2018-04-02T17:02:18.727Z,12.20
2018-04-02T17:04:46.302Z,12.20
2018-04-02T17:07:13.835Z,12.20
2018-04-02T17:09:42.139Z,12.10
2018-04-02T17:12:09.699Z,12.10
2018-04-02T17:14:37.240Z,12.10
2018-04-02T17:17:04.820Z,12.10
2018-04-02T17:19:32.355Z,12.10
2018-04-02T17:21:59.895Z,12.10
2018-04-02T17:24:28.245Z,12.00
2018-04-02T17:26:55.783Z,12.00
2018-04-02T17:29:23.302Z,12.00
2018-04-02T17:31:51.658Z,11.90
2018-04-02T17:34:19.994Z,11.90
2018-04-02T17:36:47.520Z,11.90
2018-04-02T17:39:15.873Z,11.80
2018-04-02T17:41:43.402Z,11.80
2018-04-02T17:44:10.949Z,11.80
2018-04-02T17:46:38.507Z,11.70
2018-04-02T17:49:06.046Z,11.70
2018-04-02T17:51:33.591Z,11.60
2018-04-02T17:54:01.896Z,11.50
2018-04-02T17:56:29.414Z,11.50
2018-04-02T17:58:57.751Z,11.50
2018-04-02T18:01:25.285Z,11.50
2018-04-02T18:03:52.814Z,11.50
2018-04-02T18:06:21.165Z,11.50
2018-04-02T18:08:48.709Z,11.50
2018-04-02T18:11:16.249Z,11.50
2018-04-02T18:13:43.801Z,11.50
2018-04-02T18:16:11.346Z,11.50
2018-04-02T18:18:38.917Z,11.50
2018-04-02T18:21:06.473Z,11.50
2018-04-02T18:23:34.011Z,11.40
2018-04-02T18:26:02.322Z,11.40
2018-04-02T18:28:29.883Z,11.40
2018-04-02T18:30:57.453Z,11.40
2018-04-02T18:33:24.988Z,11.40
2018-04-02T18:35:52.567Z,11.40
2018-04-02T18:38:20.152Z,11.40
2018-04-02T18:40:47.690Z,11.40
2018-04-02T18:43:15.244Z,11.40
2018-04-02T18:45:42.796Z,11.50
2018-04-02T18:48:10.350Z,11.50
2018-04-02T18:50:37.931Z,11.50
2018-04-02T18:53:05.475Z,11.60
2018-04-02T18:55:33.033Z,11.50
2018-04-02T18:58:00.592Z,11.50
2018-04-02T19:00:28.121Z,11.50
2018-04-02T19:02:56.479Z,11.50
2018-04-02T19:05:24.030Z,11.50
2018-04-02T19:07:51.595Z,11.50
2018-04-02T19:10:20.019Z,11.40
2018-04-02T19:12:47.589Z,11.40
2018-04-02T19:15:15.221Z,11.50
2018-04-02T19:17:42.805Z,11.50
2018-04-02T19:20:11.122Z,11.60
2018-04-02T19:22:38.672Z,11.60
2018-04-02T19:25:06.253Z,11.60
2018-04-02T19:27:34.274Z,11.60
2018-04-02T19:30:01.864Z,11.60
2018-04-02T19:32:29.412Z,11.60
2018-04-02T19:34:56.977Z,11.70
2018-04-02T19:37:24.517Z,11.60
2018-04-02T19:39:52.196Z,11.60
2018-04-02T19:42:19.721Z,11.60
2018-04-02T19:44:47.289Z,11.60
2018-04-02T19:47:15.266Z,11.60
2018-04-02T19:49:42.810Z,11.50
2018-04-02T19:52:10.462Z,11.50
2018-04-02T19:54:38.028Z,11.50
2018-04-02T19:57:05.553Z,11.40
2018-04-02T19:59:34.644Z,11.40
2018-04-02T20:02:02.204Z,11.40
2018-04-02T20:04:30.551Z,11.40
2018-04-02T20:06:58.113Z,11.40
2018-04-02T20:09:26.500Z,11.50
2018-04-02T20:11:54.968Z,11.40
2018-04-02T20:14:22.512Z,11.50
2018-04-02T20:16:50.118Z,11.50
2018-04-02T20:19:17.708Z,11.50
2018-04-02T20:21:45.567Z,11.50
2018-04-02T20:24:14.372Z,11.40
2018-04-02T20:26:41.986Z,11.40
2018-04-02T20:29:09.546Z,11.40
2018-04-02T20:31:37.155Z,11.30
2018-04-02T20:34:04.700Z,11.20
2018-04-02T20:36:32.276Z,11.20
2018-04-02T20:38:59.807Z,11.20
2018-04-02T20:41:28.126Z,11.20
2018-04-02T20:43:55.674Z,11.20
2018-04-02T20:46:23.216Z,11.30
2018-04-02T20:48:50.799Z,11.30
2018-04-02T20:51:18.419Z,11.30
2018-04-02T20:53:45.964Z,11.30
2018-04-02T20:56:13.598Z,11.30
2018-04-02T20:58:42.183Z,11.30
2018-04-02T21:01:09.723Z,11.20
2018-04-02T21:03:37.294Z,11.20
2018-04-02T21:06:04.831Z,11.20
2018-04-02T21:08:32.371Z,11.10
2018-04-02T21:10:59.939Z,11.10
2018-04-02T21:13:27.477Z,11.00
2018-04-02T21:15:55.824Z,11.00
2018-04-02T21:18:24.408Z,11.00
2018-04-02T21:20:51.961Z,11.00
2018-04-02T21:23:19.500Z,11.00
2018-04-02T21:25:47.033Z,11.10
2018-04-02T21:28:14.574Z,11.00
2018-04-02T21:30:42.887Z,11.10
2018-04-02T21:33:10.470Z,11.10
2018-04-02T21:35:38.004Z,11.10
2018-04-02T21:38:05.545Z,11.20
2018-04-02T21:40:33.593Z,11.20
2018-04-02T21:43:01.625Z,11.30
2018-04-02T21:45:29.169Z,11.30
2018-04-02T21:47:56.758Z,11.30
2018-04-02T21:50:24.369Z,11.30
2018-04-02T21:52:51.906Z,11.30
2018-04-02T21:55:20.287Z,11.40
2018-04-02T21:57:49.474Z,11.40
2018-04-02T22:00:17.428Z,11.30
2018-04-02T22:02:45.762Z,11.30
2018-04-02T22:05:13.338Z,11.30
2018-04-02T22:07:40.913Z,11.30
2018-04-02T22:10:08.462Z,11.30
2018-04-02T22:12:36.030Z,11.30
2018-04-02T22:15:03.585Z,11.30
2018-04-02T22:17:31.143Z,11.20
2018-04-02T22:19:58.717Z,11.20
2018-04-02T22:22:26.249Z,11.10
2018-04-02T22:24:53.821Z,11.10
2018-04-02T22:27:21.349Z,11.10
2018-04-02T22:29:48.887Z,11.10
2018-04-02T22:32:17.317Z,11.00
2018-04-02T22:34:44.849Z,11.00
2018-04-02T22:37:12.405Z,10.90
2018-04-02T22:39:39.963Z,10.90
2018-04-02T22:42:07.500Z,10.90
2018-04-02T22:44:35.089Z,10.90
2018-04-02T22:47:02.631Z,10.90
2018-04-02T22:49:30.844Z,10.90
2018-04-02T22:51:59.197Z,11.00
2018-04-02T22:54:26.736Z,11.00
2018-04-02T22:56:54.316Z,11.00
2018-04-02T22:59:21.888Z,11.00
2018-04-02T23:01:49.413Z,11.00
2018-04-02T23:04:16.937Z,11.00
2018-04-02T23:06:44.521Z,11.00
2018-04-02T23:09:12.820Z,11.00
2018-04-02T23:11:40.351Z,11.00
2018-04-02T23:14:08.699Z,11.00
2018-04-02T23:16:36.249Z,11.00
2018-04-02T23:19:03.801Z,11.10
2018-04-02T23:21:31.381Z,11.10
2018-04-02T23:23:58.922Z,11.10
2018-04-02T23:26:26.471Z,11.10
2018-04-02T23:28:54.047Z,11.10
2018-04-02T23:31:21.591Z,11.00
2018-04-02T23:33:49.148Z,11.00
2018-04-02T23:36:16.731Z,11.10
2018-04-02T23:38:44.264Z,11.10
2018-04-02T23:41:11.842Z,11.10
2018-04-02T23:43:39.388Z,11.10
2018-04-02T23:46:06.954Z,11.10
2018-04-02T23:48:34.771Z,11.10
2018-04-02T23:51:03.079Z,11.10
2018-04-02T23:53:30.639Z,11.10
2018-04-02T23:55:58.206Z,11.10
2018-04-02T23:58:25.772Z,11.10
